createdAt,value
2019-02-27T00:00:59.980Z,3.21
2019-02-27T00:03:29.211Z,3.20
2019-02-27T00:05:56.124Z,3.31
2019-02-27T00:08:22.233Z,3.25
2019-02-27T00:10:48.437Z,3.39
2019-02-27T00:13:14.774Z,3.55
2019-02-27T00:15:41.121Z,3.46
2019-02-27T00:18:07.503Z,3.25
2019-02-27T00:20:36.882Z,3.22
2019-02-27T00:23:02.145Z,3.20
2019-02-27T00:25:29.585Z,3.33
2019-02-27T00:27:55.706Z,3.32
2019-02-27T00:30:22.988Z,3.16
2019-02-27T00:32:51.310Z,3.03
2019-02-27T00:35:17.342Z,3.09
2019-02-27T00:37:43.594Z,3.15
2019-02-27T00:40:09.999Z,3.11
2019-02-27T00:42:36.231Z,2.94
2019-02-27T00:45:07.042Z,2.60
2019-02-27T00:47:33.134Z,2.68
2019-02-27T00:49:59.258Z,2.69
2019-02-27T00:52:25.342Z,3.01
2019-02-27T00:54:52.545Z,3.14
2019-02-27T00:57:20.891Z,3.12
2019-02-27T00:59:46.860Z,3.04
2019-02-27T01:02:12.908Z,2.97
2019-02-27T01:04:38.997Z,2.79
2019-02-27T01:07:05.176Z,2.61
2019-02-27T01:09:31.399Z,2.73
2019-02-27T01:11:57.574Z,2.62
2019-02-27T01:14:23.657Z,2.50
2019-02-27T01:16:50.162Z,2.46
2019-02-27T01:19:19.086Z,2.40
2019-02-27T01:21:45.285Z,2.26
2019-02-27T01:24:11.392Z,2.00
2019-02-27T01:26:37.472Z,2.11
2019-02-27T01:29:04.695Z,2.38
2019-02-27T01:31:30.907Z,2.11
2019-02-27T01:33:57.010Z,2.28
2019-02-27T01:36:24.621Z,2.34
2019-02-27T01:38:51.157Z,2.50
2019-02-27T01:41:24.388Z,2.54
2019-02-27T01:43:48.422Z,2.56
2019-02-27T01:46:14.528Z,2.42
2019-02-27T01:48:43.709Z,2.44
2019-02-27T01:51:08.763Z,2.38
2019-02-27T01:53:34.871Z,2.20
2019-02-27T01:56:01.096Z,2.22
2019-02-27T01:58:27.172Z,2.36
2019-02-27T02:00:56.060Z,2.37
2019-02-27T02:03:21.354Z,2.20
2019-02-27T02:05:47.956Z,2.11
2019-02-27T02:08:14.634Z,2.18
2019-02-27T02:10:40.964Z,2.06
2019-02-27T02:13:15.156Z,1.79
2019-02-27T02:16:01.542Z,1.96
2019-02-27T02:18:31.618Z,1.80
2019-02-27T02:21:19.664Z,1.90
2019-02-27T02:24:15.540Z,2.03
2019-02-27T02:27:09.270Z,2.01
2019-02-27T02:29:59.174Z,1.90
2019-02-27T02:32:52.037Z,1.72
2019-02-27T02:35:54.007Z,1.81
2019-02-27T02:38:40.660Z,1.95
2019-02-27T02:41:13.427Z,2.03
2019-02-27T02:43:46.136Z,2.07
2019-02-27T02:46:19.909Z,2.07
2019-02-27T02:48:55.675Z,2.04
2019-02-27T02:51:43.457Z,1.96
2019-02-27T02:54:19.326Z,2.14
2019-02-27T02:57:00.735Z,2.21
2019-02-27T02:59:46.764Z,2.24
2019-02-27T03:02:23.466Z,2.18
2019-02-27T03:05:06.871Z,2.17
2019-02-27T03:07:45.862Z,2.17
2019-02-27T03:10:25.065Z,2.11
2019-02-27T03:12:57.885Z,1.94
2019-02-27T03:15:42.270Z,1.87
2019-02-27T03:18:26.150Z,1.88
2019-02-27T03:21:01.934Z,1.89
2019-02-27T03:23:31.952Z,1.90
2019-02-27T03:26:04.618Z,2.01
2019-02-27T03:28:41.680Z,2.09
2019-02-27T03:31:33.488Z,1.95
2019-02-27T03:34:48.250Z,1.93
2019-02-27T03:37:19.715Z,2.02
2019-02-27T03:40:11.752Z,1.99
2019-02-27T03:43:10.487Z,1.96
2019-02-27T03:45:52.468Z,1.97
2019-02-27T03:48:28.457Z,1.63
2019-02-27T03:51:07.774Z,1.68
2019-02-27T03:53:52.784Z,1.51
2019-02-27T03:56:48.723Z,1.25
2019-02-27T03:59:27.646Z,1.34
2019-02-27T04:02:08.975Z,1.60
2019-02-27T04:05:05.316Z,1.70
2019-02-27T04:07:32.774Z,1.72
2019-02-27T04:09:59.044Z,1.69
2019-02-27T04:12:25.243Z,1.55
2019-02-27T04:14:51.438Z,1.19
2019-02-27T04:17:28.292Z,1.18
2019-02-27T04:19:55.610Z,1.18
2019-02-27T04:22:21.784Z,1.36
2019-02-27T04:24:48.127Z,1.39
2019-02-27T04:27:20.062Z,1.33
2019-02-27T04:29:42.320Z,1.27
2019-02-27T04:32:09.557Z,1.29
2019-02-27T04:34:36.393Z,1.34
2019-02-27T04:37:02.638Z,1.35
2019-02-27T04:39:28.702Z,1.35
2019-02-27T04:41:54.804Z,1.36
2019-02-27T04:44:20.902Z,1.39
2019-02-27T04:46:47.098Z,1.41
2019-02-27T04:49:13.236Z,1.48
2019-02-27T04:51:39.423Z,1.42
2019-02-27T04:54:07.278Z,1.32
2019-02-27T04:56:33.744Z,1.26
2019-02-27T04:58:59.857Z,1.27
2019-02-27T05:01:26.069Z,1.30
2019-02-27T05:03:52.444Z,1.30
2019-02-27T05:06:18.531Z,1.10
2019-02-27T05:08:44.715Z,0.98
2019-02-27T05:11:13.961Z,1.01
2019-02-27T05:13:39.017Z,1.12
2019-02-27T05:16:05.235Z,1.18
2019-02-27T05:18:31.331Z,1.18
2019-02-27T05:20:57.420Z,1.18
2019-02-27T05:23:23.608Z,1.17
2019-02-27T05:25:49.821Z,1.24
2019-02-27T05:28:16.143Z,1.26
2019-02-27T05:30:44.824Z,1.23
2019-02-27T05:33:10.415Z,1.27
2019-02-27T05:35:36.476Z,1.18
2019-02-27T05:38:02.703Z,1.16
2019-02-27T05:40:29.018Z,1.24
2019-02-27T05:42:55.154Z,1.06
2019-02-27T05:45:21.493Z,1.21
2019-02-27T05:47:47.583Z,1.15
2019-02-27T05:50:13.785Z,1.23
2019-02-27T05:52:40.070Z,1.21
2019-02-27T05:55:07.099Z,1.14
2019-02-27T05:57:33.347Z,1.14
2019-02-27T06:00:02.358Z,1.18
2019-02-27T06:02:27.554Z,1.16
2019-02-27T06:04:56.133Z,1.11
2019-02-27T06:07:21.923Z,0.97
2019-02-27T06:09:49.013Z,1.02
2019-02-27T06:12:15.288Z,1.03
2019-02-27T06:14:41.381Z,1.13
2019-02-27T06:17:10.211Z,1.17
2019-02-27T06:19:35.452Z,1.26
2019-02-27T06:22:01.759Z,0.96
2019-02-27T06:24:27.938Z,1.02
2019-02-27T06:26:54.138Z,1.01
2019-02-27T06:29:23.296Z,0.95
2019-02-27T06:31:48.252Z,0.76
2019-02-27T06:34:14.439Z,0.33
2019-02-27T06:36:42.864Z,0.09
2019-02-27T06:39:08.831Z,0.21
2019-02-27T06:41:34.904Z,0.34
2019-02-27T06:44:03.804Z,0.21
2019-02-27T06:46:29.923Z,0.47
2019-02-27T06:48:56.530Z,0.73
2019-02-27T06:51:22.770Z,0.50
2019-02-27T06:53:48.963Z,0.19
2019-02-27T06:56:15.096Z,0.35
2019-02-27T06:58:41.149Z,0.35
2019-02-27T07:01:09.666Z,0.34
2019-02-27T07:03:35.366Z,0.77
2019-02-27T07:06:03.343Z,1.06
2019-02-27T07:08:29.434Z,1.33
2019-02-27T07:10:58.948Z,1.79
2019-02-27T07:13:23.753Z,1.81
2019-02-27T07:15:49.943Z,2.40
2019-02-27T07:18:16.035Z,2.73
2019-02-27T07:20:42.228Z,2.87
2019-02-27T07:23:08.402Z,2.89
2019-02-27T07:25:34.728Z,2.87
2019-02-27T07:28:01.008Z,2.96
2019-02-27T07:30:28.495Z,2.91
2019-02-27T07:32:54.853Z,2.97
2019-02-27T07:35:25.399Z,2.74
2019-02-27T07:37:49.216Z,2.91
2019-02-27T07:40:16.765Z,2.95
2019-02-27T07:42:42.872Z,2.82
2019-02-27T07:45:16.871Z,2.86
2019-02-27T07:47:43.067Z,2.95
2019-02-27T07:50:11.961Z,3.05
2019-02-27T07:52:38.035Z,3.26
2019-02-27T07:55:21.080Z,3.41
2019-02-27T07:57:36.547Z,3.57
2019-02-27T08:00:14.752Z,3.89
2019-02-27T08:02:39.857Z,4.06
2019-02-27T08:05:07.850Z,4.32
2019-02-27T08:07:33.940Z,4.58
2019-02-27T08:10:03.595Z,4.74
2019-02-27T08:12:28.498Z,4.92
2019-02-27T08:14:54.609Z,5.06
2019-02-27T08:17:20.821Z,5.26
2019-02-27T08:19:47.020Z,5.43
2019-02-27T08:22:13.144Z,5.62
2019-02-27T08:24:39.353Z,5.81
2019-02-27T08:27:07.159Z,6.02
2019-02-27T08:29:33.646Z,6.19
2019-02-27T08:32:01.277Z,6.43
2019-02-27T08:34:27.961Z,6.65
2019-02-27T08:36:54.033Z,6.96
2019-02-27T08:39:20.185Z,7.12
2019-02-27T08:41:46.324Z,7.35
2019-02-27T08:44:13.299Z,7.59
2019-02-27T08:46:39.694Z,7.79
2019-02-27T08:49:05.869Z,7.95
2019-02-27T08:51:32.088Z,8.00
2019-02-27T08:53:59.361Z,8.03
2019-02-27T08:56:26.120Z,8.34
2019-02-27T08:58:52.299Z,8.54
2019-02-27T09:01:21.665Z,8.59
2019-02-27T09:03:47.798Z,8.74
2019-02-27T09:06:16.801Z,8.96
2019-02-27T09:08:44.027Z,9.03
2019-02-27T09:11:10.262Z,9.26
2019-02-27T09:13:36.797Z,9.58
2019-02-27T09:16:03.154Z,9.58
2019-02-27T09:18:29.398Z,9.81
2019-02-27T09:20:55.585Z,10.18
2019-02-27T09:23:21.763Z,10.74
2019-02-27T09:25:48.953Z,10.55
2019-02-27T09:28:16.001Z,10.41
2019-02-27T09:30:42.296Z,11.11
2019-02-27T09:33:08.526Z,11.34
2019-02-27T09:35:38.500Z,11.71
2019-02-27T09:38:02.800Z,11.72
2019-02-27T09:40:29.820Z,12.22
2019-02-27T09:42:56.546Z,12.29
2019-02-27T09:45:25.056Z,12.42
2019-02-27T09:47:51.356Z,12.39
2019-02-27T09:50:41.362Z,12.49
2019-02-27T09:53:07.808Z,12.72
2019-02-27T09:55:34.422Z,13.25
2019-02-27T09:58:00.938Z,13.62
2019-02-27T10:00:33.329Z,12.91
2019-02-27T10:03:00.244Z,12.56
2019-02-27T10:05:26.418Z,12.75
2019-02-27T10:07:52.646Z,12.84
2019-02-27T10:10:18.725Z,13.32
2019-02-27T10:12:44.837Z,13.71
2019-02-27T10:15:11.048Z,13.72
2019-02-27T10:17:37.136Z,14.02
2019-02-27T10:20:08.473Z,14.10
2019-02-27T10:22:34.694Z,14.25
2019-02-27T10:25:00.875Z,14.54
2019-02-27T10:27:28.709Z,14.64
2019-02-27T10:29:55.178Z,14.83
2019-02-27T10:32:21.353Z,14.95
2019-02-27T10:34:47.457Z,15.00
2019-02-27T10:37:17.152Z,15.25
2019-02-27T10:39:41.539Z,15.90
2019-02-27T10:42:07.765Z,16.35
2019-02-27T10:44:34.500Z,16.33
2019-02-27T10:47:00.848Z,16.65
2019-02-27T10:49:28.048Z,17.11
2019-02-27T10:51:54.266Z,16.13
2019-02-27T10:54:20.504Z,16.38
2019-02-27T10:56:46.607Z,16.59
2019-02-27T10:59:12.691Z,16.61
2019-02-27T11:01:38.769Z,16.59
2019-02-27T11:04:04.980Z,16.80
2019-02-27T11:06:34.078Z,17.01
2019-02-27T11:08:59.229Z,16.91
2019-02-27T11:11:25.521Z,16.59
2019-02-27T11:13:55.226Z,16.36
2019-02-27T11:16:21.277Z,16.45
2019-02-27T11:18:48.070Z,16.33
2019-02-27T11:21:14.414Z,16.46
2019-02-27T11:23:41.717Z,16.69
2019-02-27T11:26:08.031Z,16.94
2019-02-27T11:28:34.548Z,17.05
2019-02-27T11:31:01.092Z,17.32
2019-02-27T11:33:27.169Z,17.71
2019-02-27T11:35:53.273Z,17.76
2019-02-27T11:38:24.354Z,18.33
2019-02-27T11:40:47.603Z,18.14
2019-02-27T11:43:13.757Z,17.68
2019-02-27T11:45:39.969Z,18.25
2019-02-27T11:48:07.167Z,17.89
2019-02-27T11:50:33.587Z,18.58
2019-02-27T11:53:02.805Z,18.62
2019-02-27T11:55:27.976Z,18.59
2019-02-27T11:57:54.183Z,17.80
2019-02-27T12:00:23.417Z,18.21
2019-02-27T12:02:49.863Z,18.30
2019-02-27T12:05:16.268Z,18.21
2019-02-27T12:07:42.680Z,18.42
2019-02-27T12:10:12.479Z,18.21
2019-02-27T12:12:38.727Z,18.20
2019-02-27T12:15:09.098Z,18.38
2019-02-27T12:17:36.068Z,18.23
2019-02-27T12:20:03.981Z,18.30
2019-02-27T12:22:32.949Z,17.99
2019-02-27T12:25:00.450Z,18.36
2019-02-27T12:27:47.797Z,18.43
2019-02-27T12:29:54.930Z,18.25
2019-02-27T12:32:21.965Z,18.39
2019-02-27T12:34:48.723Z,18.44
2019-02-27T12:37:26.836Z,19.19
2019-02-27T12:39:43.579Z,19.14
2019-02-27T12:42:10.113Z,19.08
2019-02-27T12:44:36.359Z,19.99
2019-02-27T12:47:05.498Z,19.59
2019-02-27T12:49:30.895Z,19.69
2019-02-27T12:51:57.042Z,20.43
2019-02-27T12:54:23.163Z,20.77
2019-02-27T12:56:49.487Z,20.71
2019-02-27T12:59:15.809Z,19.79
2019-02-27T13:01:42.023Z,20.23
2019-02-27T13:04:08.380Z,20.87
2019-02-27T13:06:37.249Z,20.78
2019-02-27T13:09:04.756Z,20.98
2019-02-27T13:11:32.867Z,20.65
2019-02-27T13:13:59.662Z,21.38
2019-02-27T13:16:26.829Z,21.79
2019-02-27T13:18:53.058Z,22.15
2019-02-27T13:21:20.686Z,21.84
2019-02-27T13:23:47.438Z,22.51
2019-02-27T13:26:13.563Z,20.31
2019-02-27T13:28:39.808Z,20.37
2019-02-27T13:31:06.135Z,20.46
2019-02-27T13:33:32.949Z,21.35
2019-02-27T13:36:01.583Z,21.90
2019-02-27T13:38:28.796Z,21.94
2019-02-27T13:40:55.097Z,22.23
2019-02-27T13:43:21.409Z,21.19
2019-02-27T13:45:48.233Z,19.88
2019-02-27T13:48:14.669Z,20.38
2019-02-27T13:50:41.113Z,20.48
2019-02-27T13:53:07.453Z,21.36
2019-02-27T13:55:33.909Z,21.57
2019-02-27T13:58:03.663Z,21.60
2019-02-27T14:00:30.704Z,22.88
2019-02-27T14:02:57.049Z,22.00
2019-02-27T14:05:23.440Z,22.02
2019-02-27T14:07:49.654Z,20.35
2019-02-27T14:10:20.489Z,20.29
2019-02-27T14:12:45.791Z,20.31
2019-02-27T14:15:17.824Z,20.78
2019-02-27T14:17:44.124Z,20.43
2019-02-27T14:20:13.781Z,20.90
2019-02-27T14:22:41.155Z,20.89
2019-02-27T14:25:13.650Z,21.67
2019-02-27T14:27:40.168Z,22.22
2019-02-27T14:30:16.129Z,23.11
2019-02-27T14:32:44.988Z,22.81
2019-02-27T14:35:10.759Z,21.84
2019-02-27T14:37:37.144Z,21.60
2019-02-27T14:40:10.116Z,20.64
2019-02-27T14:42:36.441Z,20.07
2019-02-27T14:45:06.530Z,20.36
2019-02-27T14:47:32.697Z,20.91
2019-02-27T14:50:00.144Z,21.56
2019-02-27T14:52:27.879Z,21.89
2019-02-27T14:54:53.990Z,20.99
2019-02-27T14:57:20.324Z,20.81
2019-02-27T14:59:46.428Z,21.31
2019-02-27T15:02:12.779Z,21.36
2019-02-27T15:04:39.114Z,21.31
2019-02-27T15:07:05.425Z,20.97
2019-02-27T15:09:36.080Z,21.26
2019-02-27T15:11:59.767Z,21.30
2019-02-27T15:14:25.980Z,21.02
2019-02-27T15:16:52.302Z,21.42
2019-02-27T15:19:18.972Z,21.69
2019-02-27T15:21:46.530Z,21.73
2019-02-27T15:24:13.483Z,21.81
2019-02-27T15:26:45.248Z,21.71
2019-02-27T15:29:07.804Z,21.47
2019-02-27T15:31:34.053Z,20.82
2019-02-27T15:34:00.368Z,20.38
2019-02-27T15:36:29.502Z,20.20
2019-02-27T15:38:54.939Z,20.35
2019-02-27T15:41:21.287Z,20.59
2019-02-27T15:43:57.390Z,20.69
2019-02-27T15:46:15.848Z,20.55
2019-02-27T15:48:42.058Z,20.52
2019-02-27T15:51:08.353Z,21.02
2019-02-27T15:53:34.565Z,21.26
2019-02-27T15:56:00.927Z,21.12
2019-02-27T15:58:28.051Z,21.05
2019-02-27T16:00:55.042Z,21.43
2019-02-27T16:03:22.889Z,21.41
2019-02-27T16:05:49.561Z,20.83
2019-02-27T16:08:15.739Z,20.54
2019-02-27T16:10:43.821Z,20.32
2019-02-27T16:13:10.219Z,20.44
2019-02-27T16:15:36.447Z,20.76
2019-02-27T16:18:04.614Z,21.18
2019-02-27T16:20:31.030Z,20.74
2019-02-27T16:22:57.224Z,21.09
2019-02-27T16:25:25.944Z,21.44
2019-02-27T16:27:52.298Z,20.72
2019-02-27T16:30:21.546Z,20.63
2019-02-27T16:32:49.478Z,20.10
2019-02-27T16:35:17.354Z,20.28
2019-02-27T16:37:43.695Z,20.66
2019-02-27T16:40:18.652Z,19.28
2019-02-27T16:42:45.408Z,18.67
2019-02-27T16:45:20.435Z,18.47
2019-02-27T16:47:46.728Z,18.27
2019-02-27T16:50:15.427Z,18.22
2019-02-27T16:52:42.240Z,18.27
2019-02-27T16:55:13.319Z,18.09
2019-02-27T16:57:39.625Z,18.09
2019-02-27T17:00:09.543Z,17.46
2019-02-27T17:02:38.260Z,17.05
2019-02-27T17:05:10.498Z,16.90
2019-02-27T17:07:36.738Z,16.69
2019-02-27T17:10:10.980Z,16.56
2019-02-27T17:12:38.223Z,16.29
2019-02-27T17:15:11.172Z,16.16
2019-02-27T17:17:37.282Z,16.11
2019-02-27T17:20:12.698Z,15.83
2019-02-27T17:22:36.914Z,15.44
2019-02-27T17:25:09.799Z,15.14
2019-02-27T17:27:36.091Z,14.63
2019-02-27T17:30:17.624Z,14.44
2019-02-27T17:32:43.980Z,14.28
2019-02-27T17:35:10.303Z,14.02
2019-02-27T17:37:37.393Z,13.84
2019-02-27T17:40:09.024Z,13.96
2019-02-27T17:42:35.254Z,13.94
2019-02-27T17:45:04.154Z,14.03
2019-02-27T17:47:32.084Z,14.04
2019-02-27T17:49:58.325Z,13.79
2019-02-27T17:52:24.524Z,13.67
2019-02-27T17:54:50.642Z,13.55
2019-02-27T17:57:16.901Z,13.55
2019-02-27T17:59:43.100Z,13.53
2019-02-27T18:02:09.450Z,13.40
2019-02-27T18:04:35.825Z,13.15
2019-02-27T18:07:09.192Z,12.95
2019-02-27T18:09:34.524Z,12.79
2019-02-27T18:12:04.504Z,12.55
2019-02-27T18:14:30.632Z,12.70
2019-02-27T18:16:59.208Z,12.69
2019-02-27T18:19:24.867Z,12.79
2019-02-27T18:21:50.969Z,12.63
2019-02-27T18:24:20.102Z,12.54
2019-02-27T18:26:50.079Z,12.52
2019-02-27T18:29:14.681Z,12.56
2019-02-27T18:31:41.027Z,12.52
2019-02-27T18:34:07.228Z,12.52
2019-02-27T18:36:42.611Z,12.44
2019-02-27T18:39:06.959Z,12.29
2019-02-27T18:41:33.783Z,12.17
2019-02-27T18:44:01.229Z,12.16
2019-02-27T18:46:30.036Z,11.97
2019-02-27T18:48:56.362Z,11.97
2019-02-27T18:51:22.665Z,11.87
2019-02-27T18:53:49.006Z,11.92
2019-02-27T18:56:15.414Z,11.92
2019-02-27T18:58:41.809Z,11.80
2019-02-27T19:01:09.862Z,11.76
2019-02-27T19:03:36.877Z,11.71
2019-02-27T19:06:11.993Z,11.15
2019-02-27T19:08:41.350Z,10.87
2019-02-27T19:11:07.810Z,10.65
2019-02-27T19:13:35.142Z,10.41
2019-02-27T19:16:06.537Z,10.51
2019-02-27T19:18:41.134Z,10.51
2019-02-27T19:21:08.321Z,10.47
2019-02-27T19:23:34.731Z,10.45
2019-02-27T19:26:06.368Z,9.66
2019-02-27T19:28:33.818Z,9.16
2019-02-27T19:30:59.952Z,9.55
2019-02-27T19:33:32.619Z,9.56
2019-02-27T19:38:32.597Z,9.17
2019-02-27T19:41:01.326Z,9.36
2019-02-27T19:43:31.866Z,9.10
2019-02-27T19:48:32.064Z,9.25
2019-02-27T19:50:58.362Z,8.91
2019-02-27T19:53:24.738Z,8.96
2019-02-27T19:58:23.242Z,8.71
2019-02-27T20:00:52.293Z,8.58
2019-02-27T20:03:18.702Z,8.50
2019-02-27T20:05:45.480Z,8.62
2019-02-27T20:08:11.851Z,8.65
2019-02-27T20:10:41.360Z,8.77
2019-02-27T20:13:08.079Z,8.59
2019-02-27T20:15:34.510Z,8.76
2019-02-27T20:18:08.244Z,8.48
2019-02-27T20:20:40.029Z,8.50
2019-02-27T20:23:08.903Z,8.54
2019-02-27T20:25:47.385Z,8.39
2019-02-27T20:28:13.600Z,8.56
2019-02-27T20:30:40.422Z,7.63
2019-02-27T20:33:06.771Z,7.60
2019-02-27T20:35:39.105Z,7.70
2019-02-27T20:38:07.908Z,7.72
2019-02-27T20:40:35.236Z,7.49
2019-02-27T20:43:10.104Z,7.47
2019-02-27T20:45:36.340Z,7.63
2019-02-27T20:48:08.618Z,7.57
2019-02-27T20:50:45.704Z,7.38
2019-02-27T20:53:13.197Z,7.12
2019-02-27T20:55:39.986Z,7.36
2019-02-27T20:58:17.930Z,7.39
2019-02-27T21:00:44.345Z,7.32
2019-02-27T21:03:10.733Z,7.39
2019-02-27T21:05:40.947Z,7.02
2019-02-27T21:08:06.827Z,7.01
2019-02-27T21:10:33.693Z,7.15
2019-02-27T21:13:00.017Z,6.97
2019-02-27T21:15:33.466Z,7.02
2019-02-27T21:17:59.979Z,7.05
2019-02-27T21:20:26.337Z,7.02
2019-02-27T21:22:55.044Z,7.07
2019-02-27T21:25:21.157Z,7.29
2019-02-27T21:27:47.470Z,7.16
2019-02-27T21:30:18.892Z,7.01
2019-02-27T21:32:44.166Z,7.18
2019-02-27T21:35:10.477Z,7.15
2019-02-27T21:37:37.338Z,7.09
2019-02-27T21:40:09.212Z,7.02
2019-02-27T21:42:35.544Z,6.97
2019-02-27T21:45:03.650Z,6.92
2019-02-27T21:47:31.029Z,6.94
2019-02-27T21:49:57.121Z,6.62
2019-02-27T21:52:23.448Z,6.59
2019-02-27T21:54:49.806Z,6.36
2019-02-27T21:57:15.989Z,6.54
2019-02-27T21:59:42.388Z,6.55
2019-02-27T22:02:09.000Z,6.30
2019-02-27T22:04:35.308Z,6.17
2019-02-27T22:07:01.599Z,6.40
2019-02-27T22:09:27.783Z,6.24
2019-02-27T22:11:53.996Z,6.26
2019-02-27T22:14:20.397Z,5.98
2019-02-27T22:16:46.503Z,6.11
2019-02-27T22:19:12.824Z,6.14
2019-02-27T22:21:38.953Z,6.32
2019-02-27T22:24:05.279Z,6.28
2019-02-27T22:26:37.079Z,6.32
2019-02-27T22:29:00.014Z,6.33
2019-02-27T22:31:26.275Z,6.19
2019-02-27T22:33:53.137Z,6.31
2019-02-27T22:36:20.456Z,6.19
2019-02-27T22:38:46.654Z,6.13
2019-02-27T22:41:13.846Z,5.89
2019-02-27T22:43:40.103Z,5.61
2019-02-27T22:46:06.284Z,5.56
2019-02-27T22:48:32.519Z,5.42
2019-02-27T22:50:58.863Z,5.45
2019-02-27T22:53:26.238Z,5.56
2019-02-27T22:55:53.352Z,5.82
2019-02-27T22:58:19.852Z,5.72
2019-02-27T23:00:56.349Z,5.69
2019-02-27T23:03:36.917Z,5.75
2019-02-27T23:06:04.007Z,5.59
2019-02-27T23:08:30.361Z,5.57
2019-02-27T23:10:56.633Z,5.31
2019-02-27T23:13:22.895Z,5.10
2019-02-27T23:15:49.288Z,5.19
2019-02-27T23:18:15.487Z,5.28
2019-02-27T23:20:41.585Z,5.18
2019-02-27T23:23:07.922Z,5.26
2019-02-27T23:25:34.056Z,5.15
2019-02-27T23:28:01.026Z,5.26
2019-02-27T23:30:28.403Z,5.20
2019-02-27T23:32:54.734Z,5.34
2019-02-27T23:35:21.146Z,5.36
2019-02-27T23:37:47.266Z,5.57
2019-02-27T23:40:16.913Z,5.67
2019-02-27T23:42:41.633Z,5.78
2019-02-27T23:45:10.311Z,5.78
2019-02-27T23:47:37.729Z,5.80
2019-02-27T23:50:10.819Z,5.90
2019-02-27T23:52:35.796Z,5.89
2019-02-27T23:55:02.281Z,5.94
2019-02-27T23:57:28.682Z,6.01
2019-02-27T23:59:54.880Z,6.12
